sensor_id;sensor_type;location;lat;lon;timestamp;temperature;humidity
10175;DHT22;18221;38.704;0.152;2023-04-01T00:05:20;21.60;99.90
10175;DHT22;18221;38.704;0.152;2023-04-01T00:07:50;21.50;99.90
10175;DHT22;18221;38.704;0.152;2023-04-01T00:10:18;21.50;99.90
10175;DHT22;18221;38.704;0.152;2023-04-01T00:12:46;21.50;99.90
10175;DHT22;18221;38.704;0.152;2023-04-01T00:15:15;21.50;99.90
10175;DHT22;18221;38.704;0.152;2023-04-01T00:17:46;21.50;99.90
10175;DHT22;18221;38.704;0.152;2023-04-01T00:20:15;21.40;99.90
10175;DHT22;18221;38.704;0.152;2023-04-01T00:22:45;21.40;99.90
10175;DHT22;18221;38.704;0.152;2023-04-01T00:25:13;21.40;99.90
10175;DHT22;18221;38.704;0.152;2023-04-01T00:27:42;21.40;99.90
10175;DHT22;18221;38.704;0.152;2023-04-01T00:30:11;21.30;99.90
10175;DHT22;18221;38.704;0.152;2023-04-01T00:32:40;21.30;99.90
10175;DHT22;18221;38.704;0.152;2023-04-01T00:35:09;21.30;99.90
10175;DHT22;18221;38.704;0.152;2023-04-01T00:37:38;21.30;99.90
10175;DHT22;18221;38.704;0.152;2023-04-01T00:40:24;21.30;99.90
10175;DHT22;18221;38.704;0.152;2023-04-01T00:42:54;21.30;99.90
10175;DHT22;18221;38.704;0.152;2023-04-01T00:45:29;21.20;99.90
10175;DHT22;18221;38.704;0.152;2023-04-01T00:48:04;21.20;99.90
10175;DHT22;18221;38.704;0.152;2023-04-01T00:50:37;21.20;99.90
10175;DHT22;18221;38.704;0.152;2023-04-01T00:53:08;21.20;99.90
10175;DHT22;18221;38.704;0.152;2023-04-01T00:55:42;21.20;99.90
10175;DHT22;18221;38.704;0.152;2023-04-01T00:58:17;21.20;99.90
10175;DHT22;18221;38.704;0.152;2023-04-01T01:00:51;21.10;99.90
10175;DHT22;18221;38.704;0.152;2023-04-01T01:03:21;21.10;99.90
10175;DHT22;18221;38.704;0.152;2023-04-01T01:09:03;21.10;99.90
10175;DHT22;18221;38.704;0.152;2023-04-01T01:11:43;21.10;99.90
10175;DHT22;18221;38.704;0.152;2023-04-01T01:14:33;21.10;99.90
10175;DHT22;18221;38.704;0.152;2023-04-01T01:17:13;21.00;99.90
10175;DHT22;18221;38.704;0.152;2023-04-01T01:20:10;21.00;99.90
10175;DHT22;18221;38.704;0.152;2023-04-01T01:26:39;21.00;99.90
10175;DHT22;18221;38.704;0.152;2023-04-01T01:29:32;21.00;99.90
10175;DHT22;18221;38.704;0.152;2023-04-01T01:32:16;21.00;99.90
10175;DHT22;18221;38.704;0.152;2023-04-01T01:35:13;20.90;99.90
10175;DHT22;18221;38.704;0.152;2023-04-01T01:37:47;20.90;99.90
10175;DHT22;18221;38.704;0.152;2023-04-01T01:40:20;20.90;99.90
10175;DHT22;18221;38.704;0.152;2023-04-01T01:42:57;20.90;99.90
10175;DHT22;18221;38.704;0.152;2023-04-01T01:45:32;20.80;99.90
10175;DHT22;18221;38.704;0.152;2023-04-01T01:48:04;20.80;99.90
10175;DHT22;18221;38.704;0.152;2023-04-01T01:50:39;20.80;99.90
10175;DHT22;18221;38.704;0.152;2023-04-01T01:53:12;20.70;99.90
10175;DHT22;18221;38.704;0.152;2023-04-01T01:55:43;20.80;99.90
10175;DHT22;18221;38.704;0.152;2023-04-01T01:58:16;20.70;99.90
10175;DHT22;18221;38.704;0.152;2023-04-01T02:00:51;20.40;99.90
10175;DHT22;18221;38.704;0.152;2023-04-01T02:03:24;20.70;99.90
10175;DHT22;18221;38.704;0.152;2023-04-01T02:05:59;20.70;99.90
10175;DHT22;18221;38.704;0.152;2023-04-01T02:08:35;20.70;99.90
10175;DHT22;18221;38.704;0.152;2023-04-01T02:11:10;20.60;99.90
10175;DHT22;18221;38.704;0.152;2023-04-01T02:13:43;20.60;99.90
10175;DHT22;18221;38.704;0.152;2023-04-01T02:16:21;20.40;99.90
10175;DHT22;18221;38.704;0.152;2023-04-01T02:18:56;20.60;99.90
10175;DHT22;18221;38.704;0.152;2023-04-01T02:21:31;20.50;99.90
10175;DHT22;18221;38.704;0.152;2023-04-01T02:24:05;20.60;99.90
10175;DHT22;18221;38.704;0.152;2023-04-01T02:26:40;20.50;99.90
10175;DHT22;18221;38.704;0.152;2023-04-01T02:29:11;20.50;99.90
10175;DHT22;18221;38.704;0.152;2023-04-01T02:31:42;20.50;99.90
10175;DHT22;18221;38.704;0.152;2023-04-01T02:34:10;20.50;99.90
10175;DHT22;18221;38.704;0.152;2023-04-01T02:36:41;20.50;99.90
10175;DHT22;18221;38.704;0.152;2023-04-01T02:39:10;20.50;99.90
10175;DHT22;18221;38.704;0.152;2023-04-01T02:41:43;20.50;99.90
10175;DHT22;18221;38.704;0.152;2023-04-01T02:44:13;20.40;99.90
10175;DHT22;18221;38.704;0.152;2023-04-01T02:46:43;20.40;99.90
10175;DHT22;18221;38.704;0.152;2023-04-01T02:49:11;18.70;99.90
10175;DHT22;18221;38.704;0.152;2023-04-01T02:51:41;20.50;99.90
10175;DHT22;18221;38.704;0.152;2023-04-01T02:54:09;20.40;99.90
10175;DHT22;18221;38.704;0.152;2023-04-01T02:56:37;20.40;99.90
10175;DHT22;18221;38.704;0.152;2023-04-01T02:59:05;20.40;99.90
10175;DHT22;18221;38.704;0.152;2023-04-01T03:01:34;20.40;99.90
10175;DHT22;18221;38.704;0.152;2023-04-01T03:04:02;20.40;99.90
10175;DHT22;18221;38.704;0.152;2023-04-01T03:06:33;20.40;99.90
10175;DHT22;18221;38.704;0.152;2023-04-01T03:09:06;20.30;99.90
10175;DHT22;18221;38.704;0.152;2023-04-01T03:11:35;20.30;99.90
10175;DHT22;18221;38.704;0.152;2023-04-01T03:14:03;20.40;99.90
10175;DHT22;18221;38.704;0.152;2023-04-01T03:16:33;20.20;99.90
10175;DHT22;18221;38.704;0.152;2023-04-01T03:19:01;20.50;99.90
10175;DHT22;18221;38.704;0.152;2023-04-01T03:21:29;20.30;99.90
10175;DHT22;18221;38.704;0.152;2023-04-01T03:23:58;20.20;99.90
10175;DHT22;18221;38.704;0.152;2023-04-01T03:26:28;20.20;99.90
10175;DHT22;18221;38.704;0.152;2023-04-01T03:28:57;20.20;99.90
10175;DHT22;18221;38.704;0.152;2023-04-01T03:31:25;20.20;99.90
10175;DHT22;18221;38.704;0.152;2023-04-01T03:33:54;20.10;99.90
10175;DHT22;18221;38.704;0.152;2023-04-01T03:36:22;20.30;99.90
10175;DHT22;18221;38.704;0.152;2023-04-01T03:38:51;20.20;99.90
10175;DHT22;18221;38.704;0.152;2023-04-01T03:41:19;20.20;99.90
10175;DHT22;18221;38.704;0.152;2023-04-01T03:43:50;20.10;99.90
10175;DHT22;18221;38.704;0.152;2023-04-01T03:46:19;20.20;99.90
10175;DHT22;18221;38.704;0.152;2023-04-01T03:48:48;20.10;99.90
10175;DHT22;18221;38.704;0.152;2023-04-01T03:51:16;20.10;99.90
10175;DHT22;18221;38.704;0.152;2023-04-01T03:53:45;20.10;99.90
10175;DHT22;18221;38.704;0.152;2023-04-01T03:56:13;20.20;99.90
10175;DHT22;18221;38.704;0.152;2023-04-01T03:58:42;20.10;99.90
10175;DHT22;18221;38.704;0.152;2023-04-01T04:01:16;20.20;99.90
10175;DHT22;18221;38.704;0.152;2023-04-01T04:03:47;20.20;99.90
10175;DHT22;18221;38.704;0.152;2023-04-01T04:06:18;20.10;99.90
10175;DHT22;18221;38.704;0.152;2023-04-01T04:08:47;20.10;99.90
10175;DHT22;18221;38.704;0.152;2023-04-01T04:11:18;20.10;99.90
10175;DHT22;18221;38.704;0.152;2023-04-01T04:13:47;20.10;99.90
10175;DHT22;18221;38.704;0.152;2023-04-01T04:16:17;20.00;99.90
10175;DHT22;18221;38.704;0.152;2023-04-01T04:18:46;20.00;99.90
10175;DHT22;18221;38.704;0.152;2023-04-01T04:21:15;20.00;99.90
10175;DHT22;18221;38.704;0.152;2023-04-01T04:23:43;20.00;99.90
10175;DHT22;18221;38.704;0.152;2023-04-01T04:26:14;20.00;99.90
10175;DHT22;18221;38.704;0.152;2023-04-01T04:28:43;20.10;99.90
10175;DHT22;18221;38.704;0.152;2023-04-01T04:31:12;20.00;99.90
10175;DHT22;18221;38.704;0.152;2023-04-01T04:33:47;19.90;99.90
10175;DHT22;18221;38.704;0.152;2023-04-01T04:36:15;19.90;99.90
10175;DHT22;18221;38.704;0.152;2023-04-01T04:38:44;19.90;99.90
10175;DHT22;18221;38.704;0.152;2023-04-01T04:41:13;19.80;99.90
10175;DHT22;18221;38.704;0.152;2023-04-01T04:43:49;20.00;99.90
10175;DHT22;18221;38.704;0.152;2023-04-01T04:46:19;19.80;99.90
10175;DHT22;18221;38.704;0.152;2023-04-01T04:48:49;19.60;99.90
10175;DHT22;18221;38.704;0.152;2023-04-01T04:51:19;19.80;99.90
10175;DHT22;18221;38.704;0.152;2023-04-01T04:53:48;19.70;99.90
10175;DHT22;18221;38.704;0.152;2023-04-01T04:56:18;19.60;99.90
10175;DHT22;18221;38.704;0.152;2023-04-01T04:58:50;19.70;99.90
10175;DHT22;18221;38.704;0.152;2023-04-01T05:01:19;19.60;99.90
10175;DHT22;18221;38.704;0.152;2023-04-01T05:03:49;19.60;99.90
10175;DHT22;18221;38.704;0.152;2023-04-01T05:06:18;19.50;99.90
10175;DHT22;18221;38.704;0.152;2023-04-01T05:08:48;19.50;99.90
10175;DHT22;18221;38.704;0.152;2023-04-01T05:11:18;19.50;99.90
10175;DHT22;18221;38.704;0.152;2023-04-01T05:13:47;19.50;99.90
10175;DHT22;18221;38.704;0.152;2023-04-01T05:16:18;19.40;99.90
10175;DHT22;18221;38.704;0.152;2023-04-01T05:18:47;19.40;99.90
10175;DHT22;18221;38.704;0.152;2023-04-01T05:21:17;19.40;99.90
10175;DHT22;18221;38.704;0.152;2023-04-01T05:23:46;19.40;99.90
10175;DHT22;18221;38.704;0.152;2023-04-01T05:26:14;19.40;99.90
10175;DHT22;18221;38.704;0.152;2023-04-01T05:28:43;19.30;99.90
10175;DHT22;18221;38.704;0.152;2023-04-01T05:31:11;19.30;99.90
10175;DHT22;18221;38.704;0.152;2023-04-01T05:33:40;19.30;99.90
10175;DHT22;18221;38.704;0.152;2023-04-01T05:36:13;19.20;99.90
10175;DHT22;18221;38.704;0.152;2023-04-01T05:38:42;19.10;99.90
10175;DHT22;18221;38.704;0.152;2023-04-01T05:41:12;19.10;99.90
10175;DHT22;18221;38.704;0.152;2023-04-01T05:43:41;19.00;99.90
10175;DHT22;18221;38.704;0.152;2023-04-01T05:46:10;19.00;99.90
10175;DHT22;18221;38.704;0.152;2023-04-01T05:48:39;18.90;99.90
10175;DHT22;18221;38.704;0.152;2023-04-01T05:51:14;18.90;99.90
10175;DHT22;18221;38.704;0.152;2023-04-01T05:53:43;18.90;99.90
10175;DHT22;18221;38.704;0.152;2023-04-01T05:56:12;18.80;99.90
10175;DHT22;18221;38.704;0.152;2023-04-01T05:58:52;18.90;99.90
10175;DHT22;18221;38.704;0.152;2023-04-01T06:01:22;18.50;99.90
10175;DHT22;18221;38.704;0.152;2023-04-01T06:03:57;18.40;99.90
10175;DHT22;18221;38.704;0.152;2023-04-01T06:06:29;18.40;99.90
10175;DHT22;18221;38.704;0.152;2023-04-01T06:09:07;18.40;99.90
10175;DHT22;18221;38.704;0.152;2023-04-01T06:11:55;18.40;99.90
10175;DHT22;18221;38.704;0.152;2023-04-01T06:14:51;18.70;99.90
10175;DHT22;18221;38.704;0.152;2023-04-01T06:17:43;18.50;99.90
10175;DHT22;18221;38.704;0.152;2023-04-01T06:20:26;18.10;99.90
10175;DHT22;18221;38.704;0.152;2023-04-01T06:26:24;18.70;99.90
10175;DHT22;18221;38.704;0.152;2023-04-01T06:29:19;18.40;99.90
10175;DHT22;18221;38.704;0.152;2023-04-01T06:32:19;18.40;99.90
10175;DHT22;18221;38.704;0.152;2023-04-01T06:35:24;18.30;99.90
10175;DHT22;18221;38.704;0.152;2023-04-01T06:38:37;18.20;99.90
10175;DHT22;18221;38.704;0.152;2023-04-01T06:41:39;18.20;99.90
10175;DHT22;18221;38.704;0.152;2023-04-01T06:44:29;18.20;99.90
10175;DHT22;18221;38.704;0.152;2023-04-01T06:47:19;18.20;99.90
10175;DHT22;18221;38.704;0.152;2023-04-01T06:50:03;18.30;99.90
10175;DHT22;18221;38.704;0.152;2023-04-01T06:52:49;18.20;99.90
10175;DHT22;18221;38.704;0.152;2023-04-01T06:55:29;18.30;99.90
10175;DHT22;18221;38.704;0.152;2023-04-01T06:58:05;18.30;99.90
10175;DHT22;18221;38.704;0.152;2023-04-01T07:00:44;18.20;99.90
10175;DHT22;18221;38.704;0.152;2023-04-01T07:03:20;18.20;99.90
10175;DHT22;18221;38.704;0.152;2023-04-01T07:05:57;18.10;99.90
10175;DHT22;18221;38.704;0.152;2023-04-01T07:08:33;18.10;99.90
10175;DHT22;18221;38.704;0.152;2023-04-01T07:11:08;18.10;99.90
10175;DHT22;18221;38.704;0.152;2023-04-01T07:13:43;17.70;99.90
10175;DHT22;18221;38.704;0.152;2023-04-01T07:16:20;18.20;99.90
10175;DHT22;18221;38.704;0.152;2023-04-01T07:18:59;18.20;99.90
10175;DHT22;18221;38.704;0.152;2023-04-01T07:21:34;18.10;99.90
10175;DHT22;18221;38.704;0.152;2023-04-01T07:24:14;18.10;99.90
10175;DHT22;18221;38.704;0.152;2023-04-01T07:26:53;18.10;99.90
10175;DHT22;18221;38.704;0.152;2023-04-01T07:29:23;18.20;99.90
10175;DHT22;18221;38.704;0.152;2023-04-01T07:32:21;18.20;99.90
10175;DHT22;18221;38.704;0.152;2023-04-01T07:35:09;18.20;99.90
10175;DHT22;18221;38.704;0.152;2023-04-01T07:38:01;18.20;99.90
10175;DHT22;18221;38.704;0.152;2023-04-01T07:40:46;18.20;99.90
10175;DHT22;18221;38.704;0.152;2023-04-01T07:43:39;18.10;99.90
10175;DHT22;18221;38.704;0.152;2023-04-01T07:46:26;18.10;99.90
10175;DHT22;18221;38.704;0.152;2023-04-01T07:49:19;18.10;99.90
10175;DHT22;18221;38.704;0.152;2023-04-01T07:52:00;18.20;99.90
10175;DHT22;18221;38.704;0.152;2023-04-01T07:54:38;18.30;99.90
10175;DHT22;18221;38.704;0.152;2023-04-01T07:57:16;18.40;99.90
10175;DHT22;18221;38.704;0.152;2023-04-01T07:59:58;18.40;99.90
10175;DHT22;18221;38.704;0.152;2023-04-01T08:02:43;18.40;99.90
10175;DHT22;18221;38.704;0.152;2023-04-01T08:05:26;18.50;99.90
10175;DHT22;18221;38.704;0.152;2023-04-01T08:08:04;18.50;99.90
10175;DHT22;18221;38.704;0.152;2023-04-01T08:10:45;18.50;99.90
10175;DHT22;18221;38.704;0.152;2023-04-01T08:13:25;18.50;99.90
10175;DHT22;18221;38.704;0.152;2023-04-01T08:16:12;18.50;99.90
10175;DHT22;18221;38.704;0.152;2023-04-01T08:18:58;18.60;99.90
10175;DHT22;18221;38.704;0.152;2023-04-01T08:21:38;18.60;99.90
10175;DHT22;18221;38.704;0.152;2023-04-01T08:24:22;18.60;99.90
10175;DHT22;18221;38.704;0.152;2023-04-01T08:26:58;18.70;99.90
10175;DHT22;18221;38.704;0.152;2023-04-01T08:29:38;18.80;99.90
10175;DHT22;18221;38.704;0.152;2023-04-01T08:32:16;18.90;99.90
10175;DHT22;18221;38.704;0.152;2023-04-01T08:34:57;18.90;99.90
10175;DHT22;18221;38.704;0.152;2023-04-01T08:37:32;19.00;99.90
10175;DHT22;18221;38.704;0.152;2023-04-01T08:43:36;19.00;99.90
10175;DHT22;18221;38.704;0.152;2023-04-01T08:46:38;19.00;99.90
10175;DHT22;18221;38.704;0.152;2023-04-01T08:50:05;19.10;99.90
10175;DHT22;18221;38.704;0.152;2023-04-01T08:52:58;19.20;99.90
10175;DHT22;18221;38.704;0.152;2023-04-01T08:55:54;19.20;99.90
10175;DHT22;18221;38.704;0.152;2023-04-01T08:58:50;19.20;99.90
10175;DHT22;18221;38.704;0.152;2023-04-01T09:01:55;19.30;99.90
10175;DHT22;18221;38.704;0.152;2023-04-01T09:04:47;19.30;99.90
10175;DHT22;18221;38.704;0.152;2023-04-01T09:07:42;19.30;99.90
10175;DHT22;18221;38.704;0.152;2023-04-01T09:10:43;19.20;99.90
10175;DHT22;18221;38.704;0.152;2023-04-01T09:13:48;19.20;99.90
10175;DHT22;18221;38.704;0.152;2023-04-01T09:16:48;19.10;99.90
10175;DHT22;18221;38.704;0.152;2023-04-01T09:19:42;19.10;99.90
10175;DHT22;18221;38.704;0.152;2023-04-01T09:22:41;19.00;99.90
10175;DHT22;18221;38.704;0.152;2023-04-01T09:25:44;19.00;99.90
10175;DHT22;18221;38.704;0.152;2023-04-01T09:28:19;19.00;99.90
10175;DHT22;18221;38.704;0.152;2023-04-01T09:31:13;19.10;99.90
10175;DHT22;18221;38.704;0.152;2023-04-01T09:34:15;19.20;99.90
10175;DHT22;18221;38.704;0.152;2023-04-01T09:37:31;19.20;99.90
10175;DHT22;18221;38.704;0.152;2023-04-01T09:40:15;19.20;99.90
10175;DHT22;18221;38.704;0.152;2023-04-01T09:43:15;19.30;99.90
10175;DHT22;18221;38.704;0.152;2023-04-01T09:46:04;19.20;99.90
10175;DHT22;18221;38.704;0.152;2023-04-01T09:49:20;19.40;99.90
10175;DHT22;18221;38.704;0.152;2023-04-01T09:52:18;19.30;99.90
10175;DHT22;18221;38.704;0.152;2023-04-01T09:55:18;19.30;99.90
10175;DHT22;18221;38.704;0.152;2023-04-01T10:01:45;19.20;99.90
10175;DHT22;18221;38.704;0.152;2023-04-01T10:05:00;19.20;99.90
10175;DHT22;18221;38.704;0.152;2023-04-01T10:18:52;19.00;99.90
10175;DHT22;18221;38.704;0.152;2023-04-01T10:22:15;19.00;99.90
10175;DHT22;18221;38.704;0.152;2023-04-01T10:28:40;18.80;99.90
10175;DHT22;18221;38.704;0.152;2023-04-01T10:32:02;18.80;99.90
10175;DHT22;18221;38.704;0.152;2023-04-01T10:35:03;18.80;99.90
10175;DHT22;18221;38.704;0.152;2023-04-01T10:38:08;18.90;99.90
10175;DHT22;18221;38.704;0.152;2023-04-01T10:45:00;19.20;99.90
10175;DHT22;18221;38.704;0.152;2023-04-01T10:48:18;19.30;99.90
10175;DHT22;18221;38.704;0.152;2023-04-01T10:51:16;19.50;99.90
10175;DHT22;18221;38.704;0.152;2023-04-01T10:54:09;19.50;99.90
10175;DHT22;18221;38.704;0.152;2023-04-01T10:57:00;19.60;99.90
10175;DHT22;18221;38.704;0.152;2023-04-01T11:00:18;19.70;99.90
10175;DHT22;18221;38.704;0.152;2023-04-01T11:13:39;19.50;99.90
10175;DHT22;18221;38.704;0.152;2023-04-01T11:16:59;19.60;99.90
10175;DHT22;18221;38.704;0.152;2023-04-01T11:20:19;19.50;99.90
10175;DHT22;18221;38.704;0.152;2023-04-01T11:23:31;19.60;99.90
10175;DHT22;18221;38.704;0.152;2023-04-01T11:26:15;19.60;99.90
10175;DHT22;18221;38.704;0.152;2023-04-01T11:29:18;19.70;99.90
10175;DHT22;18221;38.704;0.152;2023-04-01T11:32:07;19.80;99.90
10175;DHT22;18221;38.704;0.152;2023-04-01T11:35:00;20.00;99.90
10175;DHT22;18221;38.704;0.152;2023-04-01T11:37:55;20.00;99.90
10175;DHT22;18221;38.704;0.152;2023-04-01T11:40:33;20.00;99.90
10175;DHT22;18221;38.704;0.152;2023-04-01T11:43:14;20.00;99.90
10175;DHT22;18221;38.704;0.152;2023-04-01T11:45:53;20.00;99.90
10175;DHT22;18221;38.704;0.152;2023-04-01T11:48:52;20.10;99.90
10175;DHT22;18221;38.704;0.152;2023-04-01T11:51:52;20.20;99.90
10175;DHT22;18221;38.704;0.152;2023-04-01T11:55:02;20.30;99.90
10175;DHT22;18221;38.704;0.152;2023-04-01T11:58:05;20.30;99.90
10175;DHT22;18221;38.704;0.152;2023-04-01T12:04:27;20.30;99.90
10175;DHT22;18221;38.704;0.152;2023-04-01T12:07:14;20.30;99.90
10175;DHT22;18221;38.704;0.152;2023-04-01T12:09:56;20.30;99.90
10175;DHT22;18221;38.704;0.152;2023-04-01T12:12:36;20.20;99.90
10175;DHT22;18221;38.704;0.152;2023-04-01T12:15:19;20.20;99.90
10175;DHT22;18221;38.704;0.152;2023-04-01T12:18:03;20.10;99.90
10175;DHT22;18221;38.704;0.152;2023-04-01T12:20:49;20.20;99.90
10175;DHT22;18221;38.704;0.152;2023-04-01T12:23:44;20.30;99.90
10175;DHT22;18221;38.704;0.152;2023-04-01T12:26:40;20.30;99.90
10175;DHT22;18221;38.704;0.152;2023-04-01T12:29:43;20.30;99.90
10175;DHT22;18221;38.704;0.152;2023-04-01T12:32:29;20.20;99.90
10175;DHT22;18221;38.704;0.152;2023-04-01T12:35:17;20.10;99.90
10175;DHT22;18221;38.704;0.152;2023-04-01T12:38:03;20.00;99.90
10175;DHT22;18221;38.704;0.152;2023-04-01T12:40:55;20.00;99.90
10175;DHT22;18221;38.704;0.152;2023-04-01T12:44:15;20.00;99.90
10175;DHT22;18221;38.704;0.152;2023-04-01T12:47:17;19.90;99.90
10175;DHT22;18221;38.704;0.152;2023-04-01T12:50:24;19.90;99.90
10175;DHT22;18221;38.704;0.152;2023-04-01T12:56:23;19.90;99.90
10175;DHT22;18221;38.704;0.152;2023-04-01T12:59:23;19.80;99.90
10175;DHT22;18221;38.704;0.152;2023-04-01T13:02:13;19.70;99.90
10175;DHT22;18221;38.704;0.152;2023-04-01T13:05:09;19.60;99.90
10175;DHT22;18221;38.704;0.152;2023-04-01T13:08:04;19.50;99.90
10175;DHT22;18221;38.704;0.152;2023-04-01T13:10:59;19.50;99.90
10175;DHT22;18221;38.704;0.152;2023-04-01T13:13:48;19.40;99.90
10175;DHT22;18221;38.704;0.152;2023-04-01T13:16:47;19.30;99.90
10175;DHT22;18221;38.704;0.152;2023-04-01T13:19:27;18.90;99.90
10175;DHT22;18221;38.704;0.152;2023-04-01T13:22:09;19.20;99.90
10175;DHT22;18221;38.704;0.152;2023-04-01T13:24:49;19.30;99.90
10175;DHT22;18221;38.704;0.152;2023-04-01T13:27:31;19.40;99.90
10175;DHT22;18221;38.704;0.152;2023-04-01T13:30:21;19.60;99.90
10175;DHT22;18221;38.704;0.152;2023-04-01T13:32:59;19.90;99.90
10175;DHT22;18221;38.704;0.152;2023-04-01T13:35:39;20.10;99.90
10175;DHT22;18221;38.704;0.152;2023-04-01T13:38:35;20.20;99.90
10175;DHT22;18221;38.704;0.152;2023-04-01T13:41:23;20.20;99.90
10175;DHT22;18221;38.704;0.152;2023-04-01T13:44:09;20.20;99.90
10175;DHT22;18221;38.704;0.152;2023-04-01T13:47:07;20.30;99.90
10175;DHT22;18221;38.704;0.152;2023-04-01T13:50:06;20.50;99.90
10175;DHT22;18221;38.704;0.152;2023-04-01T13:52:58;20.60;99.90
10175;DHT22;18221;38.704;0.152;2023-04-01T13:55:59;20.50;99.90
10175;DHT22;18221;38.704;0.152;2023-04-01T13:59:05;20.60;99.90
10175;DHT22;18221;38.704;0.152;2023-04-01T14:01:53;20.70;99.90
10175;DHT22;18221;38.704;0.152;2023-04-01T14:04:50;20.70;99.90
10175;DHT22;18221;38.704;0.152;2023-04-01T14:07:40;20.80;99.90
10175;DHT22;18221;38.704;0.152;2023-04-01T14:10:31;20.80;99.90
10175;DHT22;18221;38.704;0.152;2023-04-01T14:13:14;20.70;99.90
10175;DHT22;18221;38.704;0.152;2023-04-01T14:16:00;20.70;99.90
10175;DHT22;18221;38.704;0.152;2023-04-01T14:18:46;20.70;99.90
10175;DHT22;18221;38.704;0.152;2023-04-01T14:21:40;20.70;99.90
10175;DHT22;18221;38.704;0.152;2023-04-01T14:30:36;20.80;99.90
10175;DHT22;18221;38.704;0.152;2023-04-01T14:33:30;20.80;99.90
10175;DHT22;18221;38.704;0.152;2023-04-01T14:36:28;20.70;99.90
10175;DHT22;18221;38.704;0.152;2023-04-01T14:45:46;20.80;99.90
10175;DHT22;18221;38.704;0.152;2023-04-01T14:48:32;20.80;99.90
10175;DHT22;18221;38.704;0.152;2023-04-01T14:51:10;20.80;99.90
10175;DHT22;18221;38.704;0.152;2023-04-01T14:53:56;20.90;99.90
10175;DHT22;18221;38.704;0.152;2023-04-01T14:56:38;20.90;99.90
10175;DHT22;18221;38.704;0.152;2023-04-01T14:59:13;20.90;99.90
10175;DHT22;18221;38.704;0.152;2023-04-01T15:01:51;21.00;99.90
10175;DHT22;18221;38.704;0.152;2023-04-01T15:04:46;19.70;99.90
10175;DHT22;18221;38.704;0.152;2023-04-01T15:07:45;20.80;99.90
10175;DHT22;18221;38.704;0.152;2023-04-01T15:11:01;20.80;99.90
10175;DHT22;18221;38.704;0.152;2023-04-01T15:13:57;20.80;99.90
10175;DHT22;18221;38.704;0.152;2023-04-01T15:16:45;20.90;99.90
10175;DHT22;18221;38.704;0.152;2023-04-01T15:19:30;20.80;99.90
10175;DHT22;18221;38.704;0.152;2023-04-01T15:25:34;20.90;99.90
10175;DHT22;18221;38.704;0.152;2023-04-01T15:28:22;20.90;99.90
10175;DHT22;18221;38.704;0.152;2023-04-01T15:31:05;20.90;99.90
10175;DHT22;18221;38.704;0.152;2023-04-01T15:33:55;20.90;99.90
10175;DHT22;18221;38.704;0.152;2023-04-01T15:36:45;20.90;99.90
10175;DHT22;18221;38.704;0.152;2023-04-01T15:39:24;20.90;99.90
10175;DHT22;18221;38.704;0.152;2023-04-01T15:42:22;20.90;99.90
10175;DHT22;18221;38.704;0.152;2023-04-01T15:45:25;20.90;99.90
10175;DHT22;18221;38.704;0.152;2023-04-01T15:48:17;20.90;99.90
10175;DHT22;18221;38.704;0.152;2023-04-01T15:51:09;20.70;99.90
10175;DHT22;18221;38.704;0.152;2023-04-01T15:54:06;20.60;99.90
10175;DHT22;18221;38.704;0.152;2023-04-01T15:56:55;20.70;99.90
10175;DHT22;18221;38.704;0.152;2023-04-01T15:59:51;20.70;99.90
10175;DHT22;18221;38.704;0.152;2023-04-01T16:02:33;20.70;99.90
10175;DHT22;18221;38.704;0.152;2023-04-01T16:05:25;20.80;99.90
10175;DHT22;18221;38.704;0.152;2023-04-01T16:08:18;20.80;99.90
10175;DHT22;18221;38.704;0.152;2023-04-01T16:11:13;20.60;99.90
10175;DHT22;18221;38.704;0.152;2023-04-01T16:13:53;20.60;99.90
10175;DHT22;18221;38.704;0.152;2023-04-01T16:19:40;20.50;99.90
10175;DHT22;18221;38.704;0.152;2023-04-01T16:22:25;20.50;99.90
10175;DHT22;18221;38.704;0.152;2023-04-01T16:25:14;20.50;99.90
10175;DHT22;18221;38.704;0.152;2023-04-01T16:27:56;20.50;99.90
10175;DHT22;18221;38.704;0.152;2023-04-01T16:30:37;20.40;99.90
10175;DHT22;18221;38.704;0.152;2023-04-01T16:33:15;20.40;99.90
10175;DHT22;18221;38.704;0.152;2023-04-01T16:35:56;20.30;99.90
10175;DHT22;18221;38.704;0.152;2023-04-01T16:38:35;20.30;99.90
10175;DHT22;18221;38.704;0.152;2023-04-01T16:41:13;20.20;99.90
10175;DHT22;18221;38.704;0.152;2023-04-01T16:43:49;20.10;99.90
10175;DHT22;18221;38.704;0.152;2023-04-01T16:46:35;20.10;99.90
10175;DHT22;18221;38.704;0.152;2023-04-01T16:49:29;20.00;99.90
10175;DHT22;18221;38.704;0.152;2023-04-01T16:52:16;20.00;99.90
10175;DHT22;18221;38.704;0.152;2023-04-01T16:55:01;19.90;99.90
10175;DHT22;18221;38.704;0.152;2023-04-01T16:57:48;19.90;99.90
10175;DHT22;18221;38.704;0.152;2023-04-01T17:00:28;19.90;99.90
10175;DHT22;18221;38.704;0.152;2023-04-01T17:03:12;19.90;99.90
10175;DHT22;18221;38.704;0.152;2023-04-01T17:06:14;19.70;99.90
10175;DHT22;18221;38.704;0.152;2023-04-01T17:09:06;19.70;99.90
10175;DHT22;18221;38.704;0.152;2023-04-01T17:11:53;19.60;99.90
10175;DHT22;18221;38.704;0.152;2023-04-01T17:14:30;19.60;99.90
10175;DHT22;18221;38.704;0.152;2023-04-01T17:17:21;19.60;99.90
10175;DHT22;18221;38.704;0.152;2023-04-01T17:23:05;19.70;99.90
10175;DHT22;18221;38.704;0.152;2023-04-01T17:28:52;19.30;99.90
10175;DHT22;18221;38.704;0.152;2023-04-01T17:31:37;19.10;99.90
10175;DHT22;18221;38.704;0.152;2023-04-01T17:34:32;19.00;99.90
10175;DHT22;18221;38.704;0.152;2023-04-01T17:37:28;19.00;99.90
10175;DHT22;18221;38.704;0.152;2023-04-01T17:40:30;18.80;99.90
10175;DHT22;18221;38.704;0.152;2023-04-01T17:43:19;18.90;99.90
10175;DHT22;18221;38.704;0.152;2023-04-01T17:46:03;18.80;99.90
10175;DHT22;18221;38.704;0.152;2023-04-01T17:48:54;18.70;99.90
10175;DHT22;18221;38.704;0.152;2023-04-01T17:51:35;18.70;99.90
10175;DHT22;18221;38.704;0.152;2023-04-01T17:54:19;18.60;99.90
10175;DHT22;18221;38.704;0.152;2023-04-01T17:57:09;18.40;99.90
10175;DHT22;18221;38.704;0.152;2023-04-01T18:00:16;18.40;99.90
10175;DHT22;18221;38.704;0.152;2023-04-01T18:02:59;18.30;99.90
10175;DHT22;18221;38.704;0.152;2023-04-01T18:05:56;18.30;99.90
10175;DHT22;18221;38.704;0.152;2023-04-01T18:08:49;18.20;99.90
10175;DHT22;18221;38.704;0.152;2023-04-01T18:11:38;18.00;99.90
10175;DHT22;18221;38.704;0.152;2023-04-01T18:17:47;18.10;99.90
10175;DHT22;18221;38.704;0.152;2023-04-01T18:20:38;18.00;99.90
10175;DHT22;18221;38.704;0.152;2023-04-01T18:23:28;18.00;99.90
10175;DHT22;18221;38.704;0.152;2023-04-01T18:26:06;17.80;99.90
10175;DHT22;18221;38.704;0.152;2023-04-01T18:28:39;17.80;99.90
10175;DHT22;18221;38.704;0.152;2023-04-01T18:31:16;17.80;99.90
10175;DHT22;18221;38.704;0.152;2023-04-01T18:33:57;17.70;99.90
10175;DHT22;18221;38.704;0.152;2023-04-01T18:36:40;17.70;99.90